sensor_id;sensor_type;location;lat;lon;timestamp;P1;durP1;ratioP1;P2;durP2;ratioP2
20298;SDS011;10308;42.688;23.256;2023-06-24T00:00:00;14.20;;;12.82;;
20298;SDS011;10308;42.688;23.256;2023-06-24T00:02:34;14.10;;;12.60;;
20298;SDS011;10308;42.688;23.256;2023-06-24T00:05:02;14.63;;;13.13;;
20298;SDS011;10308;42.688;23.256;2023-06-24T00:07:31;13.57;;;12.18;;
20298;SDS011;10308;42.688;23.256;2023-06-24T00:10:02;13.43;;;12.18;;
20298;SDS011;10308;42.688;23.256;2023-06-24T00:12:32;14.15;;;12.75;;
20298;SDS011;10308;42.688;23.256;2023-06-24T00:14:59;13.23;;;11.95;;
20298;SDS011;10308;42.688;23.256;2023-06-24T00:17:27;14.32;;;12.88;;
20298;SDS011;10308;42.688;23.256;2023-06-24T00:19:55;13.98;;;12.68;;
20298;SDS011;10308;42.688;23.256;2023-06-24T00:22:24;13.18;;;11.95;;
20298;SDS011;10308;42.688;23.256;2023-06-24T00:24:52;14.23;;;12.88;;
20298;SDS011;10308;42.688;23.256;2023-06-24T00:27:18;13.88;;;12.68;;
20298;SDS011;10308;42.688;23.256;2023-06-24T00:29:51;14.48;;;13.02;;
20298;SDS011;10308;42.688;23.256;2023-06-24T00:32:19;14.48;;;12.90;;
20298;SDS011;10308;42.688;23.256;2023-06-24T00:34:45;14.85;;;12.73;;
20298;SDS011;10308;42.688;23.256;2023-06-24T00:37:16;14.07;;;12.68;;
20298;SDS011;10308;42.688;23.256;2023-06-24T00:39:44;13.93;;;12.48;;
20298;SDS011;10308;42.688;23.256;2023-06-24T00:42:13;13.73;;;12.43;;
20298;SDS011;10308;42.688;23.256;2023-06-24T00:44:40;14.63;;;13.23;;
20298;SDS011;10308;42.688;23.256;2023-06-24T00:47:10;14.90;;;13.40;;
20298;SDS011;10308;42.688;23.256;2023-06-24T00:49:39;15.90;;;14.43;;
20298;SDS011;10308;42.688;23.256;2023-06-24T00:52:07;13.77;;;12.40;;
20298;SDS011;10308;42.688;23.256;2023-06-24T00:54:37;13.77;;;12.40;;
20298;SDS011;10308;42.688;23.256;2023-06-24T00:57:04;14.00;;;12.60;;
20298;SDS011;10308;42.688;23.256;2023-06-24T00:59:36;14.05;;;12.57;;
20298;SDS011;10308;42.688;23.256;2023-06-24T01:02:05;13.55;;;12.40;;
20298;SDS011;10308;42.688;23.256;2023-06-24T01:04:35;13.77;;;12.65;;
20298;SDS011;10308;42.688;23.256;2023-06-24T01:07:04;14.85;;;13.35;;
20298;SDS011;10308;42.688;23.256;2023-06-24T01:09:33;14.85;;;13.35;;
20298;SDS011;10308;42.688;23.256;2023-06-24T01:12:02;14.57;;;13.20;;
20298;SDS011;10308;42.688;23.256;2023-06-24T01:14:31;14.30;;;12.85;;
20298;SDS011;10308;42.688;23.256;2023-06-24T01:16:59;14.20;;;13.00;;
20298;SDS011;10308;42.688;23.256;2023-06-24T01:19:49;14.13;;;12.63;;
20298;SDS011;10308;42.688;23.256;2023-06-24T01:22:37;13.88;;;12.57;;
20298;SDS011;10308;42.688;23.256;2023-06-24T01:25:37;14.00;;;12.63;;
20298;SDS011;10308;42.688;23.256;2023-06-24T01:28:16;14.20;;;12.68;;
20298;SDS011;10308;42.688;23.256;2023-06-24T01:30:54;14.25;;;12.85;;
20298;SDS011;10308;42.688;23.256;2023-06-24T01:33:36;14.85;;;13.40;;
20298;SDS011;10308;42.688;23.256;2023-06-24T01:36:11;13.95;;;12.73;;
20298;SDS011;10308;42.688;23.256;2023-06-24T01:38:40;14.80;;;13.40;;
20298;SDS011;10308;42.688;23.256;2023-06-24T01:41:12;13.90;;;12.73;;
20298;SDS011;10308;42.688;23.256;2023-06-24T01:43:42;15.88;;;14.27;;
20298;SDS011;10308;42.688;23.256;2023-06-24T01:46:11;14.10;;;12.65;;
20298;SDS011;10308;42.688;23.256;2023-06-24T01:48:42;14.15;;;12.85;;
20298;SDS011;10308;42.688;23.256;2023-06-24T01:51:12;13.77;;;12.50;;
20298;SDS011;10308;42.688;23.256;2023-06-24T01:53:42;13.20;;;11.90;;
20298;SDS011;10308;42.688;23.256;2023-06-24T01:56:16;13.52;;;12.25;;
20298;SDS011;10308;42.688;23.256;2023-06-24T01:58:43;13.80;;;12.48;;
20298;SDS011;10308;42.688;23.256;2023-06-24T02:01:13;13.30;;;12.00;;
20298;SDS011;10308;42.688;23.256;2023-06-24T02:03:43;13.45;;;12.25;;
20298;SDS011;10308;42.688;23.256;2023-06-24T02:06:12;12.88;;;11.68;;
20298;SDS011;10308;42.688;23.256;2023-06-24T02:08:42;13.57;;;12.27;;
20298;SDS011;10308;42.688;23.256;2023-06-24T02:11:10;12.70;;;11.43;;
20298;SDS011;10308;42.688;23.256;2023-06-24T02:13:40;13.35;;;12.00;;
20298;SDS011;10308;42.688;23.256;2023-06-24T02:16:09;13.93;;;12.52;;
20298;SDS011;10308;42.688;23.256;2023-06-24T02:18:38;13.52;;;12.25;;
20298;SDS011;10308;42.688;23.256;2023-06-24T02:21:09;13.40;;;12.00;;
20298;SDS011;10308;42.688;23.256;2023-06-24T02:23:37;13.68;;;12.45;;
20298;SDS011;10308;42.688;23.256;2023-06-24T02:26:06;14.13;;;12.82;;
20298;SDS011;10308;42.688;23.256;2023-06-24T02:28:37;13.25;;;12.05;;
20298;SDS011;10308;42.688;23.256;2023-06-24T02:31:06;13.82;;;12.50;;
20298;SDS011;10308;42.688;23.256;2023-06-24T02:33:36;13.15;;;11.95;;
20298;SDS011;10308;42.688;23.256;2023-06-24T02:36:04;13.15;;;11.95;;
20298;SDS011;10308;42.688;23.256;2023-06-24T02:38:34;13.85;;;12.48;;
20298;SDS011;10308;42.688;23.256;2023-06-24T02:41:03;13.57;;;12.30;;
20298;SDS011;10308;42.688;23.256;2023-06-24T02:43:31;13.15;;;11.95;;
20298;SDS011;10308;42.688;23.256;2023-06-24T02:46:02;13.68;;;12.32;;
20298;SDS011;10308;42.688;23.256;2023-06-24T02:48:31;13.70;;;12.30;;
20298;SDS011;10308;42.688;23.256;2023-06-24T02:51:00;13.55;;;12.18;;
20298;SDS011;10308;42.688;23.256;2023-06-24T02:53:28;13.48;;;12.15;;
20298;SDS011;10308;42.688;23.256;2023-06-24T02:55:58;12.70;;;11.63;;
20298;SDS011;10308;42.688;23.256;2023-06-24T02:58:30;14.15;;;12.90;;
20298;SDS011;10308;42.688;23.256;2023-06-24T03:00:58;13.73;;;12.32;;
20298;SDS011;10308;42.688;23.256;2023-06-24T03:03:26;13.48;;;12.13;;
20298;SDS011;10308;42.688;23.256;2023-06-24T03:05:54;13.85;;;12.52;;
20298;SDS011;10308;42.688;23.256;2023-06-24T03:08:24;13.07;;;11.93;;
20298;SDS011;10308;42.688;23.256;2023-06-24T03:10:54;15.05;;;13.32;;
20298;SDS011;10308;42.688;23.256;2023-06-24T03:13:22;13.50;;;12.10;;
20298;SDS011;10308;42.688;23.256;2023-06-24T03:15:51;13.88;;;12.38;;
20298;SDS011;10308;42.688;23.256;2023-06-24T03:18:19;14.32;;;12.95;;
20298;SDS011;10308;42.688;23.256;2023-06-24T03:20:46;14.55;;;12.68;;
20298;SDS011;10308;42.688;23.256;2023-06-24T03:23:14;15.10;;;12.60;;
20298;SDS011;10308;42.688;23.256;2023-06-24T03:25:42;14.13;;;12.82;;
20298;SDS011;10308;42.688;23.256;2023-06-24T03:28:10;14.57;;;13.15;;
20298;SDS011;10308;42.688;23.256;2023-06-24T03:30:40;14.35;;;12.93;;
20298;SDS011;10308;42.688;23.256;2023-06-24T03:33:08;13.77;;;12.45;;
20298;SDS011;10308;42.688;23.256;2023-06-24T03:35:42;14.32;;;12.85;;
20298;SDS011;10308;42.688;23.256;2023-06-24T03:38:11;14.98;;;12.90;;
20298;SDS011;10308;42.688;23.256;2023-06-24T03:40:39;13.88;;;12.55;;
20298;SDS011;10308;42.688;23.256;2023-06-24T03:43:07;13.50;;;12.25;;
20298;SDS011;10308;42.688;23.256;2023-06-24T03:45:37;14.75;;;13.05;;
20298;SDS011;10308;42.688;23.256;2023-06-24T03:48:07;14.73;;;13.13;;
20298;SDS011;10308;42.688;23.256;2023-06-24T03:50:38;15.07;;;13.35;;
20298;SDS011;10308;42.688;23.256;2023-06-24T03:53:09;14.60;;;13.20;;
20298;SDS011;10308;42.688;23.256;2023-06-24T03:55:38;15.68;;;14.00;;
20298;SDS011;10308;42.688;23.256;2023-06-24T03:58:05;16.13;;;13.18;;
20298;SDS011;10308;42.688;23.256;2023-06-24T04:00:34;14.93;;;13.40;;
20298;SDS011;10308;42.688;23.256;2023-06-24T04:03:04;15.18;;;13.77;;
20298;SDS011;10308;42.688;23.256;2023-06-24T04:05:34;15.70;;;14.15;;
20298;SDS011;10308;42.688;23.256;2023-06-24T04:08:02;14.57;;;13.07;;
20298;SDS011;10308;42.688;23.256;2023-06-24T04:10:32;13.95;;;12.75;;
20298;SDS011;10308;42.688;23.256;2023-06-24T04:13:00;15.35;;;13.38;;
20298;SDS011;10308;42.688;23.256;2023-06-24T04:15:28;15.38;;;13.63;;
20298;SDS011;10308;42.688;23.256;2023-06-24T04:17:57;15.05;;;13.52;;
20298;SDS011;10308;42.688;23.256;2023-06-24T04:20:26;17.17;;;14.38;;
20298;SDS011;10308;42.688;23.256;2023-06-24T04:22:54;15.80;;;14.20;;
20298;SDS011;10308;42.688;23.256;2023-06-24T04:25:21;16.02;;;14.43;;
20298;SDS011;10308;42.688;23.256;2023-06-24T04:27:50;16.75;;;15.25;;
20298;SDS011;10308;42.688;23.256;2023-06-24T04:30:17;16.02;;;14.43;;
20298;SDS011;10308;42.688;23.256;2023-06-24T04:32:46;15.57;;;14.07;;
20298;SDS011;10308;42.688;23.256;2023-06-24T04:35:14;15.35;;;13.82;;
20298;SDS011;10308;42.688;23.256;2023-06-24T04:37:47;15.38;;;13.82;;
20298;SDS011;10308;42.688;23.256;2023-06-24T04:40:17;16.25;;;14.65;;
20298;SDS011;10308;42.688;23.256;2023-06-24T04:42:44;15.50;;;13.57;;
20298;SDS011;10308;42.688;23.256;2023-06-24T04:45:11;15.02;;;13.65;;
20298;SDS011;10308;42.688;23.256;2023-06-24T04:47:39;14.93;;;13.52;;
20298;SDS011;10308;42.688;23.256;2023-06-24T04:50:06;15.30;;;13.65;;
20298;SDS011;10308;42.688;23.256;2023-06-24T04:52:39;15.65;;;14.15;;
20298;SDS011;10308;42.688;23.256;2023-06-24T04:55:09;14.95;;;13.60;;
20298;SDS011;10308;42.688;23.256;2023-06-24T04:57:37;15.90;;;14.40;;
20298;SDS011;10308;42.688;23.256;2023-06-24T05:00:08;16.73;;;15.23;;
20298;SDS011;10308;42.688;23.256;2023-06-24T05:02:39;19.15;;;15.93;;
20298;SDS011;10308;42.688;23.256;2023-06-24T05:05:06;17.35;;;15.65;;
20298;SDS011;10308;42.688;23.256;2023-06-24T05:07:35;16.35;;;14.75;;
20298;SDS011;10308;42.688;23.256;2023-06-24T05:10:03;16.77;;;15.15;;
20298;SDS011;10308;42.688;23.256;2023-06-24T05:12:33;17.02;;;15.52;;
20298;SDS011;10308;42.688;23.256;2023-06-24T05:15:01;16.15;;;14.70;;
20298;SDS011;10308;42.688;23.256;2023-06-24T05:17:31;16.40;;;14.95;;
20298;SDS011;10308;42.688;23.256;2023-06-24T05:19:59;16.63;;;14.93;;
20298;SDS011;10308;42.688;23.256;2023-06-24T05:22:27;16.60;;;15.10;;
20298;SDS011;10308;42.688;23.256;2023-06-24T05:24:56;17.27;;;15.63;;
20298;SDS011;10308;42.688;23.256;2023-06-24T05:27:23;16.80;;;15.18;;
20298;SDS011;10308;42.688;23.256;2023-06-24T05:29:52;16.58;;;14.88;;
20298;SDS011;10308;42.688;23.256;2023-06-24T05:32:21;16.80;;;15.10;;
20298;SDS011;10308;42.688;23.256;2023-06-24T05:34:49;17.23;;;15.68;;
20298;SDS011;10308;42.688;23.256;2023-06-24T05:37:18;16.85;;;15.25;;
20298;SDS011;10308;42.688;23.256;2023-06-24T05:39:46;16.15;;;14.55;;
20298;SDS011;10308;42.688;23.256;2023-06-24T05:42:15;16.33;;;14.73;;
20298;SDS011;10308;42.688;23.256;2023-06-24T05:44:43;15.95;;;14.38;;
20298;SDS011;10308;42.688;23.256;2023-06-24T05:47:12;17.25;;;15.68;;
20298;SDS011;10308;42.688;23.256;2023-06-24T05:49:40;16.08;;;14.45;;
20298;SDS011;10308;42.688;23.256;2023-06-24T05:52:08;18.55;;;16.65;;
20298;SDS011;10308;42.688;23.256;2023-06-24T05:54:36;18.70;;;16.95;;
20298;SDS011;10308;42.688;23.256;2023-06-24T05:57:05;18.88;;;17.10;;
20298;SDS011;10308;42.688;23.256;2023-06-24T05:59:33;17.38;;;15.77;;
20298;SDS011;10308;42.688;23.256;2023-06-24T06:02:01;18.02;;;16.33;;
20298;SDS011;10308;42.688;23.256;2023-06-24T06:04:32;17.65;;;15.95;;
20298;SDS011;10308;42.688;23.256;2023-06-24T06:07:00;18.02;;;16.35;;
20298;SDS011;10308;42.688;23.256;2023-06-24T06:09:27;17.73;;;16.02;;
20298;SDS011;10308;42.688;23.256;2023-06-24T06:11:54;17.00;;;15.32;;
20298;SDS011;10308;42.688;23.256;2023-06-24T06:14:22;17.92;;;16.15;;
20298;SDS011;10308;42.688;23.256;2023-06-24T06:16:50;17.02;;;15.48;;
20298;SDS011;10308;42.688;23.256;2023-06-24T06:19:17;16.50;;;14.88;;
20298;SDS011;10308;42.688;23.256;2023-06-24T06:21:47;16.83;;;15.32;;
20298;SDS011;10308;42.688;23.256;2023-06-24T06:24:16;17.13;;;15.35;;
20298;SDS011;10308;42.688;23.256;2023-06-24T06:26:43;19.23;;;17.00;;
20298;SDS011;10308;42.688;23.256;2023-06-24T06:29:11;17.77;;;15.98;;
20298;SDS011;10308;42.688;23.256;2023-06-24T06:31:39;17.05;;;15.40;;
20298;SDS011;10308;42.688;23.256;2023-06-24T06:34:05;17.60;;;16.00;;
20298;SDS011;10308;42.688;23.256;2023-06-24T06:36:34;18.55;;;16.40;;
20298;SDS011;10308;42.688;23.256;2023-06-24T06:39:07;18.13;;;16.30;;
20298;SDS011;10308;42.688;23.256;2023-06-24T06:41:35;18.08;;;16.38;;
20298;SDS011;10308;42.688;23.256;2023-06-24T06:44:03;17.60;;;15.90;;
20298;SDS011;10308;42.688;23.256;2023-06-24T06:46:32;17.58;;;15.98;;
20298;SDS011;10308;42.688;23.256;2023-06-24T06:48:59;18.13;;;16.42;;
20298;SDS011;10308;42.688;23.256;2023-06-24T06:51:26;17.80;;;16.20;;
20298;SDS011;10308;42.688;23.256;2023-06-24T06:53:54;18.67;;;16.75;;
20298;SDS011;10308;42.688;23.256;2023-06-24T06:56:24;18.35;;;16.63;;
20298;SDS011;10308;42.688;23.256;2023-06-24T06:58:51;18.83;;;17.00;;
20298;SDS011;10308;42.688;23.256;2023-06-24T07:01:18;21.83;;;18.48;;
20298;SDS011;10308;42.688;23.256;2023-06-24T07:03:50;18.92;;;17.13;;
20298;SDS011;10308;42.688;23.256;2023-06-24T07:06:18;19.42;;;17.63;;
20298;SDS011;10308;42.688;23.256;2023-06-24T07:08:46;18.75;;;17.05;;
20298;SDS011;10308;42.688;23.256;2023-06-24T07:11:17;17.90;;;16.10;;
20298;SDS011;10308;42.688;23.256;2023-06-24T07:13:47;18.02;;;16.33;;
20298;SDS011;10308;42.688;23.256;2023-06-24T07:16:17;17.92;;;16.23;;
20298;SDS011;10308;42.688;23.256;2023-06-24T07:18:45;19.00;;;17.20;;
20298;SDS011;10308;42.688;23.256;2023-06-24T07:21:13;17.90;;;16.17;;
20298;SDS011;10308;42.688;23.256;2023-06-24T07:23:41;18.02;;;16.33;;
20298;SDS011;10308;42.688;23.256;2023-06-24T07:26:09;19.27;;;17.48;;
20298;SDS011;10308;42.688;23.256;2023-06-24T07:28:37;17.60;;;15.80;;
20298;SDS011;10308;42.688;23.256;2023-06-24T07:31:07;18.65;;;16.85;;
20298;SDS011;10308;42.688;23.256;2023-06-24T07:33:35;18.70;;;16.92;;
20298;SDS011;10308;42.688;23.256;2023-06-24T07:36:03;18.30;;;16.42;;
20298;SDS011;10308;42.688;23.256;2023-06-24T07:38:30;17.20;;;15.20;;
20298;SDS011;10308;42.688;23.256;2023-06-24T07:40:59;17.15;;;15.40;;
20298;SDS011;10308;42.688;23.256;2023-06-24T07:43:28;16.40;;;14.95;;
20298;SDS011;10308;42.688;23.256;2023-06-24T07:45:56;16.33;;;14.68;;
20298;SDS011;10308;42.688;23.256;2023-06-24T07:48:25;15.88;;;14.48;;
20298;SDS011;10308;42.688;23.256;2023-06-24T07:50:53;16.27;;;14.65;;
20298;SDS011;10308;42.688;23.256;2023-06-24T07:53:20;15.65;;;14.23;;
20298;SDS011;10308;42.688;23.256;2023-06-24T07:55:48;15.93;;;14.32;;
20298;SDS011;10308;42.688;23.256;2023-06-24T07:58:16;16.50;;;15.00;;
20298;SDS011;10308;42.688;23.256;2023-06-24T08:00:44;16.35;;;14.75;;
20298;SDS011;10308;42.688;23.256;2023-06-24T08:03:12;16.17;;;14.52;;
20298;SDS011;10308;42.688;23.256;2023-06-24T08:05:40;16.65;;;15.02;;
20298;SDS011;10308;42.688;23.256;2023-06-24T08:08:08;17.45;;;15.90;;
20298;SDS011;10308;42.688;23.256;2023-06-24T08:10:36;16.55;;;15.05;;
20298;SDS011;10308;42.688;23.256;2023-06-24T08:13:05;16.77;;;15.07;;
20298;SDS011;10308;42.688;23.256;2023-06-24T08:15:33;16.30;;;14.90;;
20298;SDS011;10308;42.688;23.256;2023-06-24T08:18:02;27.48;;;18.98;;
20298;SDS011;10308;42.688;23.256;2023-06-24T08:20:31;30.08;;;19.50;;
20298;SDS011;10308;42.688;23.256;2023-06-24T08:23:02;21.00;;;16.58;;
20298;SDS011;10308;42.688;23.256;2023-06-24T08:25:30;22.25;;;17.80;;
20298;SDS011;10308;42.688;23.256;2023-06-24T08:27:57;29.52;;;19.48;;
20298;SDS011;10308;42.688;23.256;2023-06-24T08:30:25;17.17;;;15.48;;
20298;SDS011;10308;42.688;23.256;2023-06-24T08:32:55;18.33;;;16.05;;
20298;SDS011;10308;42.688;23.256;2023-06-24T08:35:22;17.52;;;15.93;;
20298;SDS011;10308;42.688;23.256;2023-06-24T08:37:48;18.98;;;15.70;;
20298;SDS011;10308;42.688;23.256;2023-06-24T08:40:18;21.92;;;17.73;;
20298;SDS011;10308;42.688;23.256;2023-06-24T08:42:47;17.80;;;16.30;;
20298;SDS011;10308;42.688;23.256;2023-06-24T08:45:13;17.52;;;15.73;;
20298;SDS011;10308;42.688;23.256;2023-06-24T08:47:41;17.15;;;15.43;;
20298;SDS011;10308;42.688;23.256;2023-06-24T08:50:13;24.88;;;17.83;;
20298;SDS011;10308;42.688;23.256;2023-06-24T08:52:42;20.52;;;18.35;;
20298;SDS011;10308;42.688;23.256;2023-06-24T08:55:12;38.10;;;23.23;;
20298;SDS011;10308;42.688;23.256;2023-06-24T08:57:46;26.38;;;19.50;;
20298;SDS011;10308;42.688;23.256;2023-06-24T09:00:14;30.17;;;20.45;;
20298;SDS011;10308;42.688;23.256;2023-06-24T09:02:43;20.02;;;18.13;;
20298;SDS011;10308;42.688;23.256;2023-06-24T09:05:10;19.20;;;17.20;;
20298;SDS011;10308;42.688;23.256;2023-06-24T09:07:38;19.25;;;17.38;;
20298;SDS011;10308;42.688;23.256;2023-06-24T09:10:06;18.58;;;16.33;;
20298;SDS011;10308;42.688;23.256;2023-06-24T09:12:34;17.27;;;15.65;;
20298;SDS011;10308;42.688;23.256;2023-06-24T09:15:05;16.58;;;14.88;;
20298;SDS011;10308;42.688;23.256;2023-06-24T09:17:41;17.30;;;15.60;;
20298;SDS011;10308;42.688;23.256;2023-06-24T09:20:12;16.63;;;15.23;;
20298;SDS011;10308;42.688;23.256;2023-06-24T09:22:40;16.77;;;15.32;;
20298;SDS011;10308;42.688;23.256;2023-06-24T09:25:09;16.73;;;15.13;;
20298;SDS011;10308;42.688;23.256;2023-06-24T09:27:37;17.60;;;16.10;;
20298;SDS011;10308;42.688;23.256;2023-06-24T09:30:18;16.83;;;15.23;;
20298;SDS011;10308;42.688;23.256;2023-06-24T09:32:47;16.80;;;15.15;;
20298;SDS011;10308;42.688;23.256;2023-06-24T09:35:16;15.48;;;14.13;;
20298;SDS011;10308;42.688;23.256;2023-06-24T09:37:49;15.90;;;14.40;;
20298;SDS011;10308;42.688;23.256;2023-06-24T09:40:17;16.40;;;14.73;;
20298;SDS011;10308;42.688;23.256;2023-06-24T09:42:48;16.08;;;14.57;;
20298;SDS011;10308;42.688;23.256;2023-06-24T09:45:20;16.10;;;14.68;;
20298;SDS011;10308;42.688;23.256;2023-06-24T09:47:48;15.75;;;14.25;;
20298;SDS011;10308;42.688;23.256;2023-06-24T09:50:17;15.35;;;14.02;;
20298;SDS011;10308;42.688;23.256;2023-06-24T09:52:45;14.85;;;13.50;;
20298;SDS011;10308;42.688;23.256;2023-06-24T09:55:14;16.08;;;14.52;;
20298;SDS011;10308;42.688;23.256;2023-06-24T09:57:44;16.38;;;14.90;;
20298;SDS011;10308;42.688;23.256;2023-06-24T10:00:13;15.15;;;13.70;;
20298;SDS011;10308;42.688;23.256;2023-06-24T10:02:44;17.85;;;15.45;;
20298;SDS011;10308;42.688;23.256;2023-06-24T10:05:13;15.38;;;13.90;;
20298;SDS011;10308;42.688;23.256;2023-06-24T10:07:41;15.18;;;13.68;;
20298;SDS011;10308;42.688;23.256;2023-06-24T10:10:08;14.63;;;13.23;;
20298;SDS011;10308;42.688;23.256;2023-06-24T10:12:37;14.95;;;13.55;;
20298;SDS011;10308;42.688;23.256;2023-06-24T10:15:05;15.65;;;14.05;;
20298;SDS011;10308;42.688;23.256;2023-06-24T10:17:33;16.10;;;13.88;;
20298;SDS011;10308;42.688;23.256;2023-06-24T10:20:04;14.52;;;13.20;;
20298;SDS011;10308;42.688;23.256;2023-06-24T10:22:34;14.93;;;13.40;;
20298;SDS011;10308;42.688;23.256;2023-06-24T10:25:04;14.18;;;13.05;;
20298;SDS011;10308;42.688;23.256;2023-06-24T10:27:38;16.23;;;14.50;;
20298;SDS011;10308;42.688;23.256;2023-06-24T10:30:08;14.90;;;13.40;;
20298;SDS011;10308;42.688;23.256;2023-06-24T10:32:45;14.25;;;12.85;;
20298;SDS011;10308;42.688;23.256;2023-06-24T10:35:23;14.52;;;13.07;;
20298;SDS011;10308;42.688;23.256;2023-06-24T10:37:57;16.23;;;14.63;;
20298;SDS011;10308;42.688;23.256;2023-06-24T10:40:44;15.27;;;13.82;;
20298;SDS011;10308;42.688;23.256;2023-06-24T10:45:55;15.63;;;14.02;;
20298;SDS011;10308;42.688;23.256;2023-06-24T10:48:24;14.77;;;13.35;;
20298;SDS011;10308;42.688;23.256;2023-06-24T10:50:54;13.80;;;12.52;;
20298;SDS011;10308;42.688;23.256;2023-06-24T10:53:21;14.93;;;13.32;;
20298;SDS011;10308;42.688;23.256;2023-06-24T10:55:49;13.68;;;12.38;;
20298;SDS011;10308;42.688;23.256;2023-06-24T10:58:17;14.30;;;12.85;;
20298;SDS011;10308;42.688;23.256;2023-06-24T11:00:46;13.80;;;12.48;;
20298;SDS011;10308;42.688;23.256;2023-06-24T11:03:16;12.93;;;11.57;;
20298;SDS011;10308;42.688;23.256;2023-06-24T11:05:45;14.30;;;12.95;;
20298;SDS011;10308;42.688;23.256;2023-06-24T11:08:14;12.07;;;10.88;;
20298;SDS011;10308;42.688;23.256;2023-06-24T11:10:46;12.82;;;11.48;;
20298;SDS011;10308;42.688;23.256;2023-06-24T11:13:14;12.35;;;11.15;;
20298;SDS011;10308;42.688;23.256;2023-06-24T11:15:42;12.20;;;11.10;;
20298;SDS011;10308;42.688;23.256;2023-06-24T11:18:13;13.45;;;12.18;;
20298;SDS011;10308;42.688;23.256;2023-06-24T11:20:41;12.40;;;11.20;;
20298;SDS011;10308;42.688;23.256;2023-06-24T11:23:10;11.57;;;10.48;;
20298;SDS011;10308;42.688;23.256;2023-06-24T11:25:43;11.38;;;10.38;;
20298;SDS011;10308;42.688;23.256;2023-06-24T11:28:14;10.60;;;9.63;;
20298;SDS011;10308;42.688;23.256;2023-06-24T11:30:41;10.27;;;9.30;;
20298;SDS011;10308;42.688;23.256;2023-06-24T11:33:09;11.43;;;10.32;;
20298;SDS011;10308;42.688;23.256;2023-06-24T11:35:38;11.55;;;10.40;;
20298;SDS011;10308;42.688;23.256;2023-06-24T11:38:05;12.30;;;11.10;;
20298;SDS011;10308;42.688;23.256;2023-06-24T11:40:33;11.27;;;10.15;;
20298;SDS011;10308;42.688;23.256;2023-06-24T11:43:03;12.90;;;11.70;;
20298;SDS011;10308;42.688;23.256;2023-06-24T11:45:30;10.80;;;9.90;;
20298;SDS011;10308;42.688;23.256;2023-06-24T11:48:03;10.45;;;9.55;;
20298;SDS011;10308;42.688;23.256;2023-06-24T11:50:32;10.73;;;9.73;;
20298;SDS011;10308;42.688;23.256;2023-06-24T11:52:58;10.38;;;9.48;;
20298;SDS011;10308;42.688;23.256;2023-06-24T11:55:25;14.30;;;9.80;;
20298;SDS011;10308;42.688;23.256;2023-06-24T11:57:54;10.25;;;9.35;;
20298;SDS011;10308;42.688;23.256;2023-06-24T12:00:26;10.18;;;9.27;;
20298;SDS011;10308;42.688;23.256;2023-06-24T12:02:55;10.45;;;9.45;;
20298;SDS011;10308;42.688;23.256;2023-06-24T12:05:23;10.45;;;9.43;;
20298;SDS011;10308;42.688;23.256;2023-06-24T12:07:56;10.32;;;9.43;;
20298;SDS011;10308;42.688;23.256;2023-06-24T12:10:25;10.10;;;9.20;;
20298;SDS011;10308;42.688;23.256;2023-06-24T12:12:53;9.90;;;9.10;;
20298;SDS011;10308;42.688;23.256;2023-06-24T12:15:20;9.95;;;9.05;;
20298;SDS011;10308;42.688;23.256;2023-06-24T12:17:49;10.35;;;9.35;;
20298;SDS011;10308;42.688;23.256;2023-06-24T12:20:18;10.60;;;9.55;;
20298;SDS011;10308;42.688;23.256;2023-06-24T12:22:46;10.23;;;9.30;;
20298;SDS011;10308;42.688;23.256;2023-06-24T12:25:14;10.60;;;9.63;;
20298;SDS011;10308;42.688;23.256;2023-06-24T12:27:44;10.70;;;9.70;;
20298;SDS011;10308;42.688;23.256;2023-06-24T12:30:12;10.10;;;9.15;;
20298;SDS011;10308;42.688;23.256;2023-06-24T12:32:42;10.73;;;9.65;;
20298;SDS011;10308;42.688;23.256;2023-06-24T12:35:12;10.27;;;9.25;;
20298;SDS011;10308;42.688;23.256;2023-06-24T12:37:42;9.55;;;8.65;;
20298;SDS011;10308;42.688;23.256;2023-06-24T12:40:11;9.88;;;8.68;;
20298;SDS011;10308;42.688;23.256;2023-06-24T12:42:40;9.90;;;8.90;;
20298;SDS011;10308;42.688;23.256;2023-06-24T12:45:08;10.43;;;9.43;;
20298;SDS011;10308;42.688;23.256;2023-06-24T12:47:38;10.98;;;10.02;;
20298;SDS011;10308;42.688;23.256;2023-06-24T12:50:06;10.50;;;9.57;;
20298;SDS011;10308;42.688;23.256;2023-06-24T12:52:37;10.20;;;9.30;;
20298;SDS011;10308;42.688;23.256;2023-06-24T12:55:05;11.55;;;10.55;;
20298;SDS011;10308;42.688;23.256;2023-06-24T12:57:34;10.77;;;9.77;;
20298;SDS011;10308;42.688;23.256;2023-06-24T13:00:03;10.98;;;9.93;;
20298;SDS011;10308;42.688;23.256;2023-06-24T13:02:32;9.95;;;9.13;;
20298;SDS011;10308;42.688;23.256;2023-06-24T13:05:02;10.27;;;9.38;;
20298;SDS011;10308;42.688;23.256;2023-06-24T13:07:29;11.73;;;10.63;;
20298;SDS011;10308;42.688;23.256;2023-06-24T13:09:59;11.15;;;9.55;;
20298;SDS011;10308;42.688;23.256;2023-06-24T13:12:27;16.92;;;15.23;;
20298;SDS011;10308;42.688;23.256;2023-06-24T13:14:54;13.75;;;10.25;;
20298;SDS011;10308;42.688;23.256;2023-06-24T13:17:21;11.15;;;10.05;;
20298;SDS011;10308;42.688;23.256;2023-06-24T13:19:50;12.40;;;11.20;;
20298;SDS011;10308;42.688;23.256;2023-06-24T13:22:19;13.68;;;10.73;;
20298;SDS011;10308;42.688;23.256;2023-06-24T13:24:47;14.18;;;10.95;;
20298;SDS011;10308;42.688;23.256;2023-06-24T13:27:15;13.68;;;10.68;;
20298;SDS011;10308;42.688;23.256;2023-06-24T13:29:44;11.45;;;10.25;;
20298;SDS011;10308;42.688;23.256;2023-06-24T13:32:12;13.02;;;10.68;;
20298;SDS011;10308;42.688;23.256;2023-06-24T13:34:40;13.40;;;10.57;;
20298;SDS011;10308;42.688;23.256;2023-06-24T13:37:08;11.05;;;10.05;;
20298;SDS011;10308;42.688;23.256;2023-06-24T13:39:36;13.70;;;9.85;;
20298;SDS011;10308;42.688;23.256;2023-06-24T13:42:04;9.13;;;8.25;;
20298;SDS011;10308;42.688;23.256;2023-06-24T13:44:34;15.73;;;9.13;;
20298;SDS011;10308;42.688;23.256;2023-06-24T13:47:03;12.57;;;8.13;;
20298;SDS011;10308;42.688;23.256;2023-06-24T13:49:33;12.60;;;7.65;;
20298;SDS011;10308;42.688;23.256;2023-06-24T13:52:02;12.30;;;7.20;;
20298;SDS011;10308;42.688;23.256;2023-06-24T13:54:29;10.98;;;8.30;;
20298;SDS011;10308;42.688;23.256;2023-06-24T13:56:58;14.15;;;8.48;;
20298;SDS011;10308;42.688;23.256;2023-06-24T13:59:25;11.65;;;8.02;;
20298;SDS011;10308;42.688;23.256;2023-06-24T14:01:54;13.82;;;8.10;;
20298;SDS011;10308;42.688;23.256;2023-06-24T14:04:22;11.82;;;7.82;;
20298;SDS011;10308;42.688;23.256;2023-06-24T14:06:50;8.82;;;7.90;;
20298;SDS011;10308;42.688;23.256;2023-06-24T14:09:18;11.07;;;8.35;;
20298;SDS011;10308;42.688;23.256;2023-06-24T14:11:46;11.90;;;7.93;;
20298;SDS011;10308;42.688;23.256;2023-06-24T14:14:17;8.80;;;7.65;;
20298;SDS011;10308;42.688;23.256;2023-06-24T14:16:45;8.30;;;7.45;;
20298;SDS011;10308;42.688;23.256;2023-06-24T14:19:14;13.20;;;8.60;;
20298;SDS011;10308;42.688;23.256;2023-06-24T14:21:42;7.80;;;6.70;;
20298;SDS011;10308;42.688;23.256;2023-06-24T14:24:10;7.70;;;6.00;;